sensor_id;sensor_type;location;lat;lon;timestamp;P1;durP1;ratioP1;P2;durP2;ratioP2
49444;SDS011;35323;43.080;-81.378;2022-08-21T00:01:43;4.93;;;4.53;;
49444;SDS011;35323;43.080;-81.378;2022-08-21T00:04:11;6.65;;;4.38;;
49444;SDS011;35323;43.080;-81.378;2022-08-21T00:06:46;5.15;;;4.75;;
49444;SDS011;35323;43.080;-81.378;2022-08-21T00:09:13;4.78;;;4.43;;
49444;SDS011;35323;43.080;-81.378;2022-08-21T00:11:41;4.78;;;4.38;;
49444;SDS011;35323;43.080;-81.378;2022-08-21T00:14:10;4.75;;;4.35;;
49444;SDS011;35323;43.080;-81.378;2022-08-21T00:16:39;5.32;;;4.93;;
49444;SDS011;35323;43.080;-81.378;2022-08-21T00:19:07;4.88;;;4.47;;
49444;SDS011;35323;43.080;-81.378;2022-08-21T00:21:35;5.82;;;5.15;;
49444;SDS011;35323;43.080;-81.378;2022-08-21T00:24:04;6.07;;;5.47;;
49444;SDS011;35323;43.080;-81.378;2022-08-21T00:26:33;6.55;;;6.05;;
49444;SDS011;35323;43.080;-81.378;2022-08-21T00:29:03;4.95;;;4.55;;
49444;SDS011;35323;43.080;-81.378;2022-08-21T00:31:30;5.82;;;5.32;;
49444;SDS011;35323;43.080;-81.378;2022-08-21T00:33:59;4.63;;;4.22;;
49444;SDS011;35323;43.080;-81.378;2022-08-21T00:36:27;4.90;;;4.32;;
49444;SDS011;35323;43.080;-81.378;2022-08-21T00:38:55;5.45;;;5.05;;
49444;SDS011;35323;43.080;-81.378;2022-08-21T00:41:24;3.95;;;3.60;;
49444;SDS011;35323;43.080;-81.378;2022-08-21T00:44:05;5.90;;;5.45;;
49444;SDS011;35323;43.080;-81.378;2022-08-21T00:46:33;5.88;;;5.15;;
49444;SDS011;35323;43.080;-81.378;2022-08-21T00:49:03;5.43;;;4.90;;
49444;SDS011;35323;43.080;-81.378;2022-08-21T00:51:35;6.13;;;5.68;;
49444;SDS011;35323;43.080;-81.378;2022-08-21T00:54:04;6.75;;;5.18;;
49444;SDS011;35323;43.080;-81.378;2022-08-21T00:56:43;7.88;;;5.30;;
49444;SDS011;35323;43.080;-81.378;2022-08-21T00:59:11;6.28;;;5.68;;
49444;SDS011;35323;43.080;-81.378;2022-08-21T01:01:40;6.13;;;5.22;;
49444;SDS011;35323;43.080;-81.378;2022-08-21T01:04:07;6.07;;;5.57;;
49444;SDS011;35323;43.080;-81.378;2022-08-21T01:06:36;6.22;;;5.72;;
49444;SDS011;35323;43.080;-81.378;2022-08-21T01:09:04;6.60;;;5.95;;
49444;SDS011;35323;43.080;-81.378;2022-08-21T01:11:33;6.38;;;5.78;;
49444;SDS011;35323;43.080;-81.378;2022-08-21T01:14:00;5.75;;;5.25;;
49444;SDS011;35323;43.080;-81.378;2022-08-21T01:16:28;6.55;;;5.90;;
49444;SDS011;35323;43.080;-81.378;2022-08-21T01:18:55;4.97;;;4.50;;
49444;SDS011;35323;43.080;-81.378;2022-08-21T01:21:25;6.13;;;5.43;;
49444;SDS011;35323;43.080;-81.378;2022-08-21T01:23:55;6.30;;;5.70;;
49444;SDS011;35323;43.080;-81.378;2022-08-21T01:26:25;5.50;;;5.10;;
49444;SDS011;35323;43.080;-81.378;2022-08-21T01:29:12;7.30;;;6.70;;
49444;SDS011;35323;43.080;-81.378;2022-08-21T01:31:41;6.40;;;5.90;;
49444;SDS011;35323;43.080;-81.378;2022-08-21T01:34:08;6.70;;;6.10;;
49444;SDS011;35323;43.080;-81.378;2022-08-21T01:36:36;11.18;;;6.53;;
49444;SDS011;35323;43.080;-81.378;2022-08-21T01:39:04;5.75;;;5.25;;
49444;SDS011;35323;43.080;-81.378;2022-08-21T01:41:33;6.32;;;5.82;;
49444;SDS011;35323;43.080;-81.378;2022-08-21T01:44:00;6.50;;;6.00;;
49444;SDS011;35323;43.080;-81.378;2022-08-21T01:46:28;6.15;;;5.60;;
49444;SDS011;35323;43.080;-81.378;2022-08-21T01:48:56;7.80;;;7.00;;
49444;SDS011;35323;43.080;-81.378;2022-08-21T01:51:24;7.70;;;7.00;;
49444;SDS011;35323;43.080;-81.378;2022-08-21T01:53:51;6.50;;;6.03;;
49444;SDS011;35323;43.080;-81.378;2022-08-21T01:56:19;7.50;;;6.80;;
49444;SDS011;35323;43.080;-81.378;2022-08-21T01:58:48;6.53;;;5.93;;
49444;SDS011;35323;43.080;-81.378;2022-08-21T02:01:19;6.40;;;5.90;;
49444;SDS011;35323;43.080;-81.378;2022-08-21T02:03:46;6.75;;;6.15;;
49444;SDS011;35323;43.080;-81.378;2022-08-21T02:06:15;6.88;;;6.18;;
49444;SDS011;35323;43.080;-81.378;2022-08-21T02:08:45;6.85;;;6.13;;
49444;SDS011;35323;43.080;-81.378;2022-08-21T02:11:13;7.97;;;7.20;;
49444;SDS011;35323;43.080;-81.378;2022-08-21T02:13:40;7.90;;;7.20;;
49444;SDS011;35323;43.080;-81.378;2022-08-21T02:16:09;6.28;;;5.78;;
49444;SDS011;35323;43.080;-81.378;2022-08-21T02:18:38;6.43;;;5.82;;
49444;SDS011;35323;43.080;-81.378;2022-08-21T02:21:06;7.80;;;6.43;;
49444;SDS011;35323;43.080;-81.378;2022-08-21T02:23:34;6.75;;;6.15;;
49444;SDS011;35323;43.080;-81.378;2022-08-21T02:26:03;9.82;;;6.40;;
49444;SDS011;35323;43.080;-81.378;2022-08-21T02:28:31;6.80;;;6.30;;
49444;SDS011;35323;43.080;-81.378;2022-08-21T02:30:59;7.03;;;6.38;;
49444;SDS011;35323;43.080;-81.378;2022-08-21T02:33:28;7.35;;;6.65;;
49444;SDS011;35323;43.080;-81.378;2022-08-21T02:35:56;7.50;;;6.85;;
49444;SDS011;35323;43.080;-81.378;2022-08-21T02:38:28;8.13;;;7.32;;
49444;SDS011;35323;43.080;-81.378;2022-08-21T02:40:56;8.40;;;6.18;;
49444;SDS011;35323;43.080;-81.378;2022-08-21T02:43:25;7.43;;;6.82;;
49444;SDS011;35323;43.080;-81.378;2022-08-21T02:45:53;9.90;;;7.25;;
49444;SDS011;35323;43.080;-81.378;2022-08-21T02:48:23;8.48;;;7.78;;
49444;SDS011;35323;43.080;-81.378;2022-08-21T02:50:52;6.68;;;6.18;;
49444;SDS011;35323;43.080;-81.378;2022-08-21T02:53:20;8.05;;;7.40;;
49444;SDS011;35323;43.080;-81.378;2022-08-21T02:55:49;6.97;;;6.28;;
49444;SDS011;35323;43.080;-81.378;2022-08-21T02:58:22;8.00;;;7.30;;
49444;SDS011;35323;43.080;-81.378;2022-08-21T03:00:50;7.10;;;6.43;;
49444;SDS011;35323;43.080;-81.378;2022-08-21T03:03:18;8.68;;;7.78;;
49444;SDS011;35323;43.080;-81.378;2022-08-21T03:05:48;8.75;;;7.63;;
49444;SDS011;35323;43.080;-81.378;2022-08-21T03:08:16;9.13;;;7.45;;
49444;SDS011;35323;43.080;-81.378;2022-08-21T03:10:45;7.90;;;6.40;;
49444;SDS011;35323;43.080;-81.378;2022-08-21T03:13:13;7.60;;;6.90;;
49444;SDS011;35323;43.080;-81.378;2022-08-21T03:15:41;7.22;;;6.57;;
49444;SDS011;35323;43.080;-81.378;2022-08-21T03:18:10;7.05;;;6.45;;
49444;SDS011;35323;43.080;-81.378;2022-08-21T03:20:38;8.27;;;7.35;;
49444;SDS011;35323;43.080;-81.378;2022-08-21T03:23:07;6.85;;;6.25;;
49444;SDS011;35323;43.080;-81.378;2022-08-21T03:25:42;8.95;;;7.22;;
49444;SDS011;35323;43.080;-81.378;2022-08-21T03:28:12;9.57;;;6.75;;
49444;SDS011;35323;43.080;-81.378;2022-08-21T03:30:41;7.13;;;6.50;;
49444;SDS011;35323;43.080;-81.378;2022-08-21T03:33:09;7.45;;;6.85;;
49444;SDS011;35323;43.080;-81.378;2022-08-21T03:35:44;8.32;;;6.88;;
49444;SDS011;35323;43.080;-81.378;2022-08-21T03:38:12;7.57;;;6.87;;
49444;SDS011;35323;43.080;-81.378;2022-08-21T03:40:41;6.25;;;5.75;;
49444;SDS011;35323;43.080;-81.378;2022-08-21T03:43:08;6.85;;;6.35;;
49444;SDS011;35323;43.080;-81.378;2022-08-21T03:45:37;6.20;;;5.60;;
49444;SDS011;35323;43.080;-81.378;2022-08-21T03:48:06;6.88;;;6.28;;
49444;SDS011;35323;43.080;-81.378;2022-08-21T03:50:35;6.80;;;6.20;;
49444;SDS011;35323;43.080;-81.378;2022-08-21T03:53:07;7.35;;;5.65;;
49444;SDS011;35323;43.080;-81.378;2022-08-21T03:55:47;8.85;;;7.95;;
49444;SDS011;35323;43.080;-81.378;2022-08-21T03:58:15;8.27;;;7.15;;
49444;SDS011;35323;43.080;-81.378;2022-08-21T04:00:47;6.45;;;5.85;;
49444;SDS011;35323;43.080;-81.378;2022-08-21T04:03:16;7.32;;;6.65;;
49444;SDS011;35323;43.080;-81.378;2022-08-21T04:05:44;7.45;;;6.72;;
49444;SDS011;35323;43.080;-81.378;2022-08-21T04:08:15;7.03;;;6.47;;
49444;SDS011;35323;43.080;-81.378;2022-08-21T04:10:46;7.40;;;6.72;;
49444;SDS011;35323;43.080;-81.378;2022-08-21T04:13:14;6.63;;;6.03;;
49444;SDS011;35323;43.080;-81.378;2022-08-21T04:15:42;7.20;;;6.60;;
49444;SDS011;35323;43.080;-81.378;2022-08-21T04:18:10;7.68;;;6.80;;
49444;SDS011;35323;43.080;-81.378;2022-08-21T04:20:37;8.32;;;7.63;;
49444;SDS011;35323;43.080;-81.378;2022-08-21T04:23:06;6.72;;;6.22;;
49444;SDS011;35323;43.080;-81.378;2022-08-21T04:25:33;8.07;;;7.15;;
49444;SDS011;35323;43.080;-81.378;2022-08-21T04:28:01;6.95;;;6.28;;
49444;SDS011;35323;43.080;-81.378;2022-08-21T04:30:29;9.90;;;7.93;;
49444;SDS011;35323;43.080;-81.378;2022-08-21T04:32:57;8.27;;;6.50;;
49444;SDS011;35323;43.080;-81.378;2022-08-21T04:35:26;7.72;;;7.03;;
49444;SDS011;35323;43.080;-81.378;2022-08-21T04:37:54;7.10;;;6.57;;
49444;SDS011;35323;43.080;-81.378;2022-08-21T04:40:23;7.45;;;6.20;;
49444;SDS011;35323;43.080;-81.378;2022-08-21T04:42:52;7.30;;;6.57;;
49444;SDS011;35323;43.080;-81.378;2022-08-21T04:47:49;8.35;;;7.63;;
49444;SDS011;35323;43.080;-81.378;2022-08-21T04:50:19;8.75;;;7.95;;
49444;SDS011;35323;43.080;-81.378;2022-08-21T04:52:47;9.70;;;8.27;;
49444;SDS011;35323;43.080;-81.378;2022-08-21T04:55:15;8.32;;;7.53;;
49444;SDS011;35323;43.080;-81.378;2022-08-21T04:57:43;7.32;;;6.70;;
49444;SDS011;35323;43.080;-81.378;2022-08-21T05:00:15;8.48;;;7.75;;
49444;SDS011;35323;43.080;-81.378;2022-08-21T05:02:45;8.43;;;7.57;;
49444;SDS011;35323;43.080;-81.378;2022-08-21T05:05:16;7.50;;;6.80;;
49444;SDS011;35323;43.080;-81.378;2022-08-21T05:07:44;10.90;;;8.00;;
49444;SDS011;35323;43.080;-81.378;2022-08-21T05:10:13;7.07;;;6.38;;
49444;SDS011;35323;43.080;-81.378;2022-08-21T05:12:41;8.20;;;7.50;;
49444;SDS011;35323;43.080;-81.378;2022-08-21T05:15:10;8.20;;;7.22;;
49444;SDS011;35323;43.080;-81.378;2022-08-21T05:17:40;9.38;;;8.48;;
49444;SDS011;35323;43.080;-81.378;2022-08-21T05:20:08;9.32;;;8.43;;
49444;SDS011;35323;43.080;-81.378;2022-08-21T05:22:36;9.65;;;8.85;;
49444;SDS011;35323;43.080;-81.378;2022-08-21T05:25:04;8.63;;;7.82;;
49444;SDS011;35323;43.080;-81.378;2022-08-21T05:27:36;8.73;;;7.93;;
49444;SDS011;35323;43.080;-81.378;2022-08-21T05:30:07;9.38;;;8.43;;
49444;SDS011;35323;43.080;-81.378;2022-08-21T05:32:35;8.25;;;7.45;;
49444;SDS011;35323;43.080;-81.378;2022-08-21T05:35:04;7.95;;;7.30;;
49444;SDS011;35323;43.080;-81.378;2022-08-21T05:37:32;9.65;;;7.45;;
49444;SDS011;35323;43.080;-81.378;2022-08-21T05:40:00;8.02;;;7.32;;
49444;SDS011;35323;43.080;-81.378;2022-08-21T05:42:46;9.38;;;8.45;;
49444;SDS011;35323;43.080;-81.378;2022-08-21T05:45:24;8.40;;;7.60;;
49444;SDS011;35323;43.080;-81.378;2022-08-21T05:48:13;8.90;;;8.00;;
49444;SDS011;35323;43.080;-81.378;2022-08-21T05:50:41;17.83;;;8.75;;
49444;SDS011;35323;43.080;-81.378;2022-08-21T05:53:10;9.98;;;8.98;;
49444;SDS011;35323;43.080;-81.378;2022-08-21T05:55:37;8.70;;;7.90;;
49444;SDS011;35323;43.080;-81.378;2022-08-21T05:58:12;8.25;;;7.45;;
49444;SDS011;35323;43.080;-81.378;2022-08-21T06:00:43;8.17;;;7.47;;
49444;SDS011;35323;43.080;-81.378;2022-08-21T06:03:17;7.82;;;7.05;;
49444;SDS011;35323;43.080;-81.378;2022-08-21T06:05:46;7.97;;;7.30;;
49444;SDS011;35323;43.080;-81.378;2022-08-21T06:08:17;7.88;;;7.18;;
49444;SDS011;35323;43.080;-81.378;2022-08-21T06:10:45;8.73;;;7.82;;
49444;SDS011;35323;43.080;-81.378;2022-08-21T06:13:13;11.82;;;8.70;;
49444;SDS011;35323;43.080;-81.378;2022-08-21T06:15:41;8.43;;;7.47;;
49444;SDS011;35323;43.080;-81.378;2022-08-21T06:18:08;7.70;;;6.90;;
49444;SDS011;35323;43.080;-81.378;2022-08-21T06:20:36;8.73;;;7.97;;
49444;SDS011;35323;43.080;-81.378;2022-08-21T06:23:04;8.23;;;7.35;;
49444;SDS011;35323;43.080;-81.378;2022-08-21T06:25:32;8.85;;;7.13;;
49444;SDS011;35323;43.080;-81.378;2022-08-21T06:28:06;8.25;;;6.93;;
49444;SDS011;35323;43.080;-81.378;2022-08-21T06:30:35;9.35;;;8.20;;
49444;SDS011;35323;43.080;-81.378;2022-08-21T06:33:03;9.23;;;8.18;;
49444;SDS011;35323;43.080;-81.378;2022-08-21T06:35:31;9.88;;;8.90;;
49444;SDS011;35323;43.080;-81.378;2022-08-21T06:37:58;8.13;;;7.35;;
49444;SDS011;35323;43.080;-81.378;2022-08-21T06:40:26;7.53;;;6.88;;
49444;SDS011;35323;43.080;-81.378;2022-08-21T06:42:56;9.52;;;8.60;;
49444;SDS011;35323;43.080;-81.378;2022-08-21T06:45:24;8.07;;;7.25;;
49444;SDS011;35323;43.080;-81.378;2022-08-21T06:47:57;9.90;;;8.90;;
49444;SDS011;35323;43.080;-81.378;2022-08-21T06:50:25;12.70;;;8.30;;
49444;SDS011;35323;43.080;-81.378;2022-08-21T06:53:26;8.20;;;7.40;;
49444;SDS011;35323;43.080;-81.378;2022-08-21T06:55:47;7.22;;;6.63;;
49444;SDS011;35323;43.080;-81.378;2022-08-21T06:58:15;9.52;;;8.48;;
49444;SDS011;35323;43.080;-81.378;2022-08-21T07:00:44;10.00;;;8.25;;
49444;SDS011;35323;43.080;-81.378;2022-08-21T07:03:19;8.98;;;8.05;;
49444;SDS011;35323;43.080;-81.378;2022-08-21T07:05:47;9.57;;;8.52;;
49444;SDS011;35323;43.080;-81.378;2022-08-21T07:08:15;10.23;;;7.43;;
49444;SDS011;35323;43.080;-81.378;2022-08-21T07:10:42;7.95;;;7.15;;
49444;SDS011;35323;43.080;-81.378;2022-08-21T07:13:10;8.98;;;8.07;;
49444;SDS011;35323;43.080;-81.378;2022-08-21T07:15:38;9.43;;;8.55;;
49444;SDS011;35323;43.080;-81.378;2022-08-21T07:18:06;9.93;;;8.82;;
49444;SDS011;35323;43.080;-81.378;2022-08-21T07:20:34;9.60;;;8.63;;
49444;SDS011;35323;43.080;-81.378;2022-08-21T07:23:03;8.95;;;8.13;;
49444;SDS011;35323;43.080;-81.378;2022-08-21T07:25:32;7.82;;;6.95;;
49444;SDS011;35323;43.080;-81.378;2022-08-21T07:28:00;10.93;;;9.32;;
49444;SDS011;35323;43.080;-81.378;2022-08-21T07:30:28;9.10;;;8.30;;
49444;SDS011;35323;43.080;-81.378;2022-08-21T07:32:55;9.52;;;8.25;;
49444;SDS011;35323;43.080;-81.378;2022-08-21T07:35:24;8.35;;;7.55;;
49444;SDS011;35323;43.080;-81.378;2022-08-21T07:37:51;10.30;;;9.38;;
49444;SDS011;35323;43.080;-81.378;2022-08-21T07:40:19;9.15;;;8.23;;
49444;SDS011;35323;43.080;-81.378;2022-08-21T07:42:47;8.45;;;7.75;;
49444;SDS011;35323;43.080;-81.378;2022-08-21T07:45:18;10.02;;;9.13;;
49444;SDS011;35323;43.080;-81.378;2022-08-21T07:47:46;10.55;;;8.70;;
49444;SDS011;35323;43.080;-81.378;2022-08-21T07:50:18;9.75;;;8.75;;
49444;SDS011;35323;43.080;-81.378;2022-08-21T07:52:46;9.85;;;8.95;;
49444;SDS011;35323;43.080;-81.378;2022-08-21T07:55:15;8.48;;;7.25;;
49444;SDS011;35323;43.080;-81.378;2022-08-21T07:57:43;9.23;;;8.30;;
49444;SDS011;35323;43.080;-81.378;2022-08-21T08:00:13;10.15;;;9.15;;
49444;SDS011;35323;43.080;-81.378;2022-08-21T08:02:43;9.93;;;8.95;;
49444;SDS011;35323;43.080;-81.378;2022-08-21T08:05:12;9.07;;;8.18;;
49444;SDS011;35323;43.080;-81.378;2022-08-21T08:07:39;10.85;;;9.85;;
49444;SDS011;35323;43.080;-81.378;2022-08-21T08:10:07;9.65;;;8.68;;
49444;SDS011;35323;43.080;-81.378;2022-08-21T08:12:36;9.90;;;9.00;;
49444;SDS011;35323;43.080;-81.378;2022-08-21T08:15:05;9.32;;;8.50;;
49444;SDS011;35323;43.080;-81.378;2022-08-21T08:17:33;10.95;;;9.85;;
49444;SDS011;35323;43.080;-81.378;2022-08-21T08:20:00;8.52;;;7.72;;
49444;SDS011;35323;43.080;-81.378;2022-08-21T08:22:28;9.52;;;8.55;;
49444;SDS011;35323;43.080;-81.378;2022-08-21T08:24:56;8.40;;;7.60;;
49444;SDS011;35323;43.080;-81.378;2022-08-21T08:27:24;9.45;;;8.52;;
49444;SDS011;35323;43.080;-81.378;2022-08-21T08:29:51;16.40;;;7.40;;
49444;SDS011;35323;43.080;-81.378;2022-08-21T08:32:19;7.85;;;7.13;;
49444;SDS011;35323;43.080;-81.378;2022-08-21T08:34:47;10.77;;;8.75;;
49444;SDS011;35323;43.080;-81.378;2022-08-21T08:37:15;7.50;;;6.68;;
49444;SDS011;35323;43.080;-81.378;2022-08-21T08:39:43;8.88;;;8.07;;
49444;SDS011;35323;43.080;-81.378;2022-08-21T08:42:27;9.43;;;8.00;;
49444;SDS011;35323;43.080;-81.378;2022-08-21T08:45:00;8.45;;;7.18;;
49444;SDS011;35323;43.080;-81.378;2022-08-21T08:47:29;8.43;;;7.38;;
49444;SDS011;35323;43.080;-81.378;2022-08-21T08:50:00;7.43;;;6.72;;
49444;SDS011;35323;43.080;-81.378;2022-08-21T08:52:31;8.48;;;7.53;;
49444;SDS011;35323;43.080;-81.378;2022-08-21T08:57:29;8.23;;;7.45;;
49444;SDS011;35323;43.080;-81.378;2022-08-21T08:59:59;10.15;;;7.10;;
49444;SDS011;35323;43.080;-81.378;2022-08-21T09:02:28;7.28;;;6.57;;
49444;SDS011;35323;43.080;-81.378;2022-08-21T09:04:56;10.30;;;8.43;;
49444;SDS011;35323;43.080;-81.378;2022-08-21T09:18:10;6.97;;;6.32;;
49444;SDS011;35323;43.080;-81.378;2022-08-21T09:20:47;7.68;;;6.97;;
49444;SDS011;35323;43.080;-81.378;2022-08-21T09:23:28;5.88;;;5.38;;
49444;SDS011;35323;43.080;-81.378;2022-08-21T09:26:16;6.53;;;5.93;;
49444;SDS011;35323;43.080;-81.378;2022-08-21T09:28:44;6.40;;;5.90;;
49444;SDS011;35323;43.080;-81.378;2022-08-21T09:31:36;5.60;;;5.10;;
49444;SDS011;35323;43.080;-81.378;2022-08-21T09:34:00;5.05;;;3.80;;
49444;SDS011;35323;43.080;-81.378;2022-08-21T09:39:07;4.82;;;4.32;;
49444;SDS011;35323;43.080;-81.378;2022-08-21T09:41:36;6.65;;;4.78;;
49444;SDS011;35323;43.080;-81.378;2022-08-21T09:44:04;4.30;;;3.97;;
49444;SDS011;35323;43.080;-81.378;2022-08-21T09:46:32;5.93;;;5.20;;
49444;SDS011;35323;43.080;-81.378;2022-08-21T09:49:01;4.85;;;4.35;;
49444;SDS011;35323;43.080;-81.378;2022-08-21T09:51:35;8.60;;;4.57;;
49444;SDS011;35323;43.080;-81.378;2022-08-21T09:56:35;6.45;;;3.72;;
49444;SDS011;35323;43.080;-81.378;2022-08-21T10:01:53;3.60;;;3.30;;
49444;SDS011;35323;43.080;-81.378;2022-08-21T10:04:22;4.13;;;3.75;;
49444;SDS011;35323;43.080;-81.378;2022-08-21T10:06:51;3.95;;;3.53;;
49444;SDS011;35323;43.080;-81.378;2022-08-21T10:09:23;4.55;;;3.83;;
49444;SDS011;35323;43.080;-81.378;2022-08-21T10:17:16;4.18;;;3.33;;
49444;SDS011;35323;43.080;-81.378;2022-08-21T10:19:56;3.95;;;3.10;;
49444;SDS011;35323;43.080;-81.378;2022-08-21T10:27:44;5.32;;;3.65;;
49444;SDS011;35323;43.080;-81.378;2022-08-21T10:30:17;5.18;;;4.07;;
49444;SDS011;35323;43.080;-81.378;2022-08-21T10:35:22;4.78;;;3.22;;
49444;SDS011;35323;43.080;-81.378;2022-08-21T10:41:18;6.13;;;3.28;;
49444;SDS011;35323;43.080;-81.378;2022-08-21T10:43:26;4.07;;;3.65;;
49444;SDS011;35323;43.080;-81.378;2022-08-21T10:53:40;4.65;;;3.97;;
49444;SDS011;35323;43.080;-81.378;2022-08-21T10:56:15;4.22;;;3.65;;
49444;SDS011;35323;43.080;-81.378;2022-08-21T10:58:45;3.60;;;3.30;;
49444;SDS011;35323;43.080;-81.378;2022-08-21T11:01:15;4.15;;;3.70;;
49444;SDS011;35323;43.080;-81.378;2022-08-21T11:03:45;5.00;;;3.10;;
49444;SDS011;35323;43.080;-81.378;2022-08-21T11:06:27;5.65;;;3.85;;
49444;SDS011;35323;43.080;-81.378;2022-08-21T11:09:13;5.65;;;4.70;;
49444;SDS011;35323;43.080;-81.378;2022-08-21T11:11:52;5.20;;;4.30;;
49444;SDS011;35323;43.080;-81.378;2022-08-21T11:17:16;4.65;;;3.45;;
49444;SDS011;35323;43.080;-81.378;2022-08-21T11:22:16;4.78;;;3.70;;
49444;SDS011;35323;43.080;-81.378;2022-08-21T11:24:50;5.00;;;3.92;;
49444;SDS011;35323;43.080;-81.378;2022-08-21T11:29:51;4.57;;;4.10;;
49444;SDS011;35323;43.080;-81.378;2022-08-21T11:37:45;5.05;;;3.33;;
49444;SDS011;35323;43.080;-81.378;2022-08-21T11:40:36;4.15;;;3.75;;
49444;SDS011;35323;43.080;-81.378;2022-08-21T11:43:17;6.05;;;4.50;;
49444;SDS011;35323;43.080;-81.378;2022-08-21T11:45:52;7.65;;;5.30;;
49444;SDS011;35323;43.080;-81.378;2022-08-21T11:48:26;8.23;;;6.32;;
49444;SDS011;35323;43.080;-81.378;2022-08-21T11:50:55;8.02;;;4.57;;
49444;SDS011;35323;43.080;-81.378;2022-08-21T11:53:30;5.28;;;3.95;;
49444;SDS011;35323;43.080;-81.378;2022-08-21T11:56:02;5.65;;;5.15;;
49444;SDS011;35323;43.080;-81.378;2022-08-21T11:58:39;13.00;;;5.85;;
49444;SDS011;35323;43.080;-81.378;2022-08-21T12:01:07;6.95;;;4.30;;
49444;SDS011;35323;43.080;-81.378;2022-08-21T12:03:38;6.07;;;5.28;;
49444;SDS011;35323;43.080;-81.378;2022-08-21T12:06:13;5.80;;;5.25;;
49444;SDS011;35323;43.080;-81.378;2022-08-21T12:08:57;7.95;;;5.68;;
49444;SDS011;35323;43.080;-81.378;2022-08-21T12:11:26;5.43;;;4.53;;
49444;SDS011;35323;43.080;-81.378;2022-08-21T12:14:11;9.32;;;5.05;;
49444;SDS011;35323;43.080;-81.378;2022-08-21T12:16:40;5.10;;;4.15;;
49444;SDS011;35323;43.080;-81.378;2022-08-21T12:19:12;6.35;;;5.25;;
49444;SDS011;35323;43.080;-81.378;2022-08-21T12:21:48;6.68;;;6.07;;
49444;SDS011;35323;43.080;-81.378;2022-08-21T12:26:52;6.47;;;5.43;;
49444;SDS011;35323;43.080;-81.378;2022-08-21T12:29:26;6.03;;;5.40;;
49444;SDS011;35323;43.080;-81.378;2022-08-21T12:32:19;6.47;;;5.15;;
49444;SDS011;35323;43.080;-81.378;2022-08-21T12:34:55;4.95;;;4.35;;
49444;SDS011;35323;43.080;-81.378;2022-08-21T12:37:29;5.30;;;4.50;;
49444;SDS011;35323;43.080;-81.378;2022-08-21T12:40:02;4.82;;;4.35;;
49444;SDS011;35323;43.080;-81.378;2022-08-21T12:42:37;6.03;;;4.88;;
49444;SDS011;35323;43.080;-81.378;2022-08-21T12:45:13;7.78;;;5.30;;
49444;SDS011;35323;43.080;-81.378;2022-08-21T12:50:26;4.90;;;4.38;;
49444;SDS011;35323;43.080;-81.378;2022-08-21T12:53:00;4.57;;;4.20;;
49444;SDS011;35323;43.080;-81.378;2022-08-21T12:55:46;4.13;;;3.72;;
49444;SDS011;35323;43.080;-81.378;2022-08-21T12:58:20;5.63;;;4.78;;
49444;SDS011;35323;43.080;-81.378;2022-08-21T13:00:56;4.97;;;4.50;;
49444;SDS011;35323;43.080;-81.378;2022-08-21T13:03:24;6.38;;;4.82;;
49444;SDS011;35323;43.080;-81.378;2022-08-21T13:05:52;5.65;;;4.10;;
49444;SDS011;35323;43.080;-81.378;2022-08-21T13:08:21;5.10;;;3.92;;
49444;SDS011;35323;43.080;-81.378;2022-08-21T13:10:55;6.97;;;5.30;;
49444;SDS011;35323;43.080;-81.378;2022-08-21T13:13:24;5.28;;;4.38;;
49444;SDS011;35323;43.080;-81.378;2022-08-21T13:16:02;7.35;;;4.78;;
49444;SDS011;35323;43.080;-81.378;2022-08-21T13:18:31;5.22;;;4.47;;
49444;SDS011;35323;43.080;-81.378;2022-08-21T13:21:04;4.45;;;4.05;;
49444;SDS011;35323;43.080;-81.378;2022-08-21T13:23:32;7.15;;;4.82;;
49444;SDS011;35323;43.080;-81.378;2022-08-21T13:25:59;6.00;;;4.40;;
49444;SDS011;35323;43.080;-81.378;2022-08-21T13:28:34;6.90;;;4.97;;
49444;SDS011;35323;43.080;-81.378;2022-08-21T13:33:29;5.85;;;4.22;;
49444;SDS011;35323;43.080;-81.378;2022-08-21T13:36:04;4.32;;;3.92;;
49444;SDS011;35323;43.080;-81.378;2022-08-21T13:38:33;4.25;;;3.85;;
49444;SDS011;35323;43.080;-81.378;2022-08-21T13:41:05;5.05;;;4.45;;
49444;SDS011;35323;43.080;-81.378;2022-08-21T13:43:37;6.20;;;5.60;;
49444;SDS011;35323;43.080;-81.378;2022-08-21T13:46:09;5.22;;;4.72;;
49444;SDS011;35323;43.080;-81.378;2022-08-21T13:48:37;6.07;;;5.57;;
49444;SDS011;35323;43.080;-81.378;2022-08-21T13:51:05;5.88;;;3.65;;
49444;SDS011;35323;43.080;-81.378;2022-08-21T16:26:16;1.58;;;1.25;;
49444;SDS011;35323;43.080;-81.378;2022-08-21T16:28:45;1.20;;;1.10;;
49444;SDS011;35323;43.080;-81.378;2022-08-21T18:30:23;1.30;;;1.13;;
49444;SDS011;35323;43.080;-81.378;2022-08-21T18:32:51;0.88;;;0.73;;
49444;SDS011;35323;43.080;-81.378;2022-08-21T18:35:19;1.13;;;1.13;;
49444;SDS011;35323;43.080;-81.378;2022-08-21T18:37:51;3.10;;;0.70;;
49444;SDS011;35323;43.080;-81.378;2022-08-21T18:40:19;1.02;;;0.77;;
49444;SDS011;35323;43.080;-81.378;2022-08-21T18:42:47;0.82;;;0.60;;
49444;SDS011;35323;43.080;-81.378;2022-08-21T18:45:21;1.23;;;0.60;;
49444;SDS011;35323;43.080;-81.378;2022-08-21T18:47:51;1.17;;;1.08;;
49444;SDS011;35323;43.080;-81.378;2022-08-21T18:50:19;0.70;;;0.57;;
49444;SDS011;35323;43.080;-81.378;2022-08-21T18:52:51;0.40;;;0.40;;
49444;SDS011;35323;43.080;-81.378;2022-08-21T18:55:20;0.30;;;0.30;;
49444;SDS011;35323;43.080;-81.378;2022-08-21T18:57:50;0.50;;;0.50;;
49444;SDS011;35323;43.080;-81.378;2022-08-21T19:00:19;0.35;;;0.35;;
49444;SDS011;35323;43.080;-81.378;2022-08-21T19:02:47;1.30;;;0.40;;
49444;SDS011;35323;43.080;-81.378;2022-08-21T19:05:15;0.20;;;0.20;;
49444;SDS011;35323;43.080;-81.378;2022-08-21T19:07:43;0.22;;;0.13;;
49444;SDS011;35323;43.080;-81.378;2022-08-21T19:10:12;0.38;;;0.30;;
49444;SDS011;35323;43.080;-81.378;2022-08-21T19:12:55;1.20;;;0.85;;
49444;SDS011;35323;43.080;-81.378;2022-08-21T19:15:24;0.25;;;0.25;;
49444;SDS011;35323;43.080;-81.378;2022-08-21T19:17:51;0.70;;;0.40;;
49444;SDS011;35323;43.080;-81.378;2022-08-21T19:20:23;0.45;;;0.28;;
49444;SDS011;35323;43.080;-81.378;2022-08-21T19:22:52;1.20;;;0.95;;
49444;SDS011;35323;43.080;-81.378;2022-08-21T19:36:24;2.22;;;0.50;;
49444;SDS011;35323;43.080;-81.378;2022-08-21T19:38:51;0.30;;;0.20;;
49444;SDS011;35323;43.080;-81.378;2022-08-21T19:41:19;0.85;;;0.40;;
49444;SDS011;35323;43.080;-81.378;2022-08-21T19:43:51;0.77;;;0.45;;
49444;SDS011;35323;43.080;-81.378;2022-08-21T19:46:25;0.75;;;0.50;;
49444;SDS011;35323;43.080;-81.378;2022-08-21T19:48:53;0.57;;;0.40;;
49444;SDS011;35323;43.080;-81.378;2022-08-21T19:51:22;1.35;;;0.70;;
49444;SDS011;35323;43.080;-81.378;2022-08-21T19:53:50;1.30;;;1.20;;
49444;SDS011;35323;43.080;-81.378;2022-08-21T19:56:23;0.80;;;0.63;;
49444;SDS011;35323;43.080;-81.378;2022-08-21T19:58:51;1.13;;;0.88;;
49444;SDS011;35323;43.080;-81.378;2022-08-21T20:01:20;0.95;;;0.82;;
49444;SDS011;35323;43.080;-81.378;2022-08-21T20:03:48;0.70;;;0.70;;
49444;SDS011;35323;43.080;-81.378;2022-08-21T20:06:20;1.15;;;0.80;;
49444;SDS011;35323;43.080;-81.378;2022-08-21T20:09:08;1.08;;;0.55;;
49444;SDS011;35323;43.080;-81.378;2022-08-21T20:11:40;1.40;;;1.30;;
49444;SDS011;35323;43.080;-81.378;2022-08-21T20:14:08;1.45;;;1.35;;
49444;SDS011;35323;43.080;-81.378;2022-08-21T20:16:36;1.45;;;1.00;;
49444;SDS011;35323;43.080;-81.378;2022-08-21T20:19:07;1.10;;;1.00;;
49444;SDS011;35323;43.080;-81.378;2022-08-21T20:21:35;1.17;;;0.93;;
49444;SDS011;35323;43.080;-81.378;2022-08-21T20:24:22;1.38;;;1.08;;
49444;SDS011;35323;43.080;-81.378;2022-08-21T20:26:52;1.27;;;1.15;;
49444;SDS011;35323;43.080;-81.378;2022-08-21T20:29:20;1.48;;;1.38;;
49444;SDS011;35323;43.080;-81.378;2022-08-21T20:31:57;1.23;;;1.13;;